Pagrindinis puslapis
METAR-TAF:

METAR-TAF

Oro uostai :

Honningsvåg, Norvegija

platuma: 71-01N, ilguma: 025-59E, Aukštis: 1 m

Dabartinis oras

Ataskaita buvo paskelbta 36 minutes, ne 05:50 UTC
Vėjas 23 kt iš Pietvakarių su gūsio iki 34 kt
Temperatūra 12°C
Drėgmė 82%
Slėgis 997 hPa
Matomumas 10 km arba daugiau
Su prošvaistėmis ne aukštis 1400 ft
lietus

METAR: ENHV 200550Z 23023G34KT 9999 -SHRA BKN014 12/09 Q0997

Laikas: 08:26 (06:26 UTC)


TAF: trūkstamas

Orai ataskaitas ir orų prognozės (METAR, TAF).

turimą stotys yra geltonos ir raudonos taškus žemėlapyje.

Perkelti pele per norėdami pamatyti stoties vardą.

Tada spustelėkite, norėdami matyti oro stebėjimo ir prognozės.

Norėdami pakeisti žemėlapį: spustelėkite ant žalios mygtukų su juodo kryžiaus žemyn,; žalią mygtuką su brūkšneliu, jei norite nutolinti; arba žalių rodyklių gretimoms žemėlapius.


METAR-TAF: